Time;durP1;ratioP1;P1;durP2;ratioP2;P2;SDS_P1;SDS_P2;PMS_P1;PMS_P2;Temp;Humidity;BMP_temperature;BMP_pressure;BME280_temperature;BME280_humidity;BME280_pressure;Samples;Min_cycle;Max_cycle;Signal;HPM_P1;HPM_P2
2024/01/08 00:01:01;;;;;;;;;;;-0.40;99.90;;;;;;8399740;28;20380;-77
2024/01/08 00:05:03;;;;;;;;;;;-0.40;99.90;;;;;;8407987;28;19938;-76
2024/01/08 00:09:04;;;;;;;;;;;-0.50;99.90;;;;;;8398347;28;19924;-77
2024/01/08 00:13:06;;;;;;;;;;;-0.60;99.90;;;;;;8399256;28;19997;-77
2024/01/08 00:17:08;;;;;;;;;;;-0.70;99.90;;;;;;8410940;28;19935;-76
2024/01/08 00:21:09;;;;;;;;;;;-0.70;99.90;;;;;;8430469;28;19942;-77
2024/01/08 00:25:11;;;;;;;;;;;-0.70;99.90;;;;;;8418943;28;19939;-76
2024/01/08 00:29:13;;;;;;;;;;;-0.60;99.90;;;;;;8429462;28;19949;-76
2024/01/08 00:43:53;;;;;;;;;;;-0.60;99.90;;;;;;8435491;28;19924;-76
2024/01/08 00:47:54;;;;;;;;;;;-0.60;99.90;;;;;;8408517;28;19924;-76
2024/01/08 00:51:56;;;;;;;;;;;-0.70;99.90;;;;;;8428419;28;20433;-76
2024/01/08 00:55:58;;;;;;;;;;;-0.60;99.90;;;;;;8420033;28;19924;-76
2024/01/08 01:00:00;;;;;;;;;;;-0.60;99.90;;;;;;8418645;28;19924;-76
2024/01/08 01:04:02;;;;;;;;;;;-0.70;99.90;;;;;;8428498;28;19924;-77
2024/01/08 01:08:04;;;;;;;;;;;-0.70;99.90;;;;;;8456474;28;19924;-76
2024/01/08 01:12:06;;;;;;;;;;;-0.60;99.90;;;;;;8444519;28;19985;-76
2024/01/08 01:16:08;;;;;;;;;;;-0.60;99.90;;;;;;8449276;28;19970;-76
2024/01/08 01:20:10;;;;;;;;;;;-0.70;99.90;;;;;;8449457;28;19931;-76
2024/01/08 01:24:11;;;;;;;;;;;-0.70;99.90;;;;;;8438943;28;20375;-76
2024/01/08 01:28:13;;;;;;;;;;;-0.80;99.90;;;;;;8438526;28;19954;-76
2024/01/08 01:32:15;;;;;;;;;;;-0.80;99.90;;;;;;8442521;28;20628;-76
2024/01/08 01:36:16;;;;;;;;;;;-0.90;99.90;;;;;;8448444;28;19969;-76
2024/01/08 01:40:18;;;;;;;;;;;-1.00;99.90;;;;;;8420464;28;19924;-76
2024/01/08 01:44:20;;;;;;;;;;;-1.00;99.90;;;;;;8449052;28;19939;-76
2024/01/08 01:48:22;;;;;;;;;;;-1.10;99.90;;;;;;8445934;28;20391;-76
2024/01/08 01:52:25;;;;;;;;;;;-1.20;99.90;;;;;;8429150;28;20299;-76
2024/01/08 01:56:27;;;;;;;;;;;-1.20;99.90;;;;;;8425116;28;19970;-76
2024/01/08 02:00:29;;;;;;;;;;;-1.30;99.90;;;;;;8428668;28;20368;-77
2024/01/08 02:04:31;;;;;;;;;;;-1.30;99.90;;;;;;8446184;28;19967;-76
2024/01/08 02:08:33;;;;;;;;;;;-1.30;99.90;;;;;;8444836;28;19924;-77
2024/01/08 02:12:35;;;;;;;;;;;-1.30;99.90;;;;;;8431300;28;19935;-76
2024/01/08 02:16:37;;;;;;;;;;;-1.40;99.90;;;;;;8423774;28;19930;-76
2024/01/08 02:20:39;;;;;;;;;;;-1.40;99.90;;;;;;8447915;28;19931;-76
2024/01/08 02:24:41;;;;;;;;;;;-1.40;99.90;;;;;;8427670;28;19923;-76
2024/01/08 02:28:42;;;;;;;;;;;-1.50;99.90;;;;;;8447932;28;20336;-76
2024/01/08 02:32:44;;;;;;;;;;;-1.50;99.90;;;;;;8438826;28;19925;-76
2024/01/08 02:36:46;;;;;;;;;;;-1.50;99.90;;;;;;8415379;28;19955;-77
2024/01/08 02:40:47;;;;;;;;;;;-1.50;99.90;;;;;;8419277;28;19931;-77
2024/01/08 02:44:49;;;;;;;;;;;-1.60;99.90;;;;;;8443676;28;19924;-76
2024/01/08 02:48:51;;;;;;;;;;;-1.60;99.90;;;;;;8439866;28;19923;-76
2024/01/08 02:52:53;;;;;;;;;;;-1.60;99.90;;;;;;8441959;28;20325;-76
2024/01/08 02:56:54;;;;;;;;;;;-1.60;99.90;;;;;;8444574;28;19924;-76
2024/01/08 03:00:59;;;;;;;;;;;-1.60;99.90;;;;;;8434799;28;19924;-77
2024/01/08 03:05:01;;;;;;;;;;;-1.60;99.90;;;;;;8439495;28;19927;-77
2024/01/08 03:09:02;;;;;;;;;;;-1.70;99.90;;;;;;8426797;28;20391;-77
2024/01/08 03:13:04;;;;;;;;;;;-1.60;99.90;;;;;;8440431;28;20375;-77
2024/01/08 03:17:06;;;;;;;;;;;-1.70;99.90;;;;;;8438254;28;19947;-77
2024/01/08 03:21:07;;;;;;;;;;;-1.70;99.90;;;;;;8440547;28;19924;-77
2024/01/08 03:25:09;;;;;;;;;;;-1.70;99.90;;;;;;8430756;28;19928;-77
2024/01/08 03:34:14;;;;;;;;;;;-1.80;99.90;;;;;;8437758;28;19923;-77
2024/01/08 03:38:16;;;;;;;;;;;-1.80;99.90;;;;;;8419248;28;19924;-77
2024/01/08 03:42:18;;;;;;;;;;;-1.70;99.90;;;;;;8432422;28;19928;-77
2024/01/08 03:46:19;;;;;;;;;;;-1.70;99.90;;;;;;8442475;28;20001;-77
2024/01/08 03:50:21;;;;;;;;;;;-1.60;99.90;;;;;;8417260;28;19924;-77
2024/01/08 03:54:23;;;;;;;;;;;-1.60;99.90;;;;;;8430212;28;19935;-76
2024/01/08 03:58:25;;;;;;;;;;;-1.60;99.90;;;;;;8415018;28;20022;-77
2024/01/08 04:02:27;;;;;;;;;;;-1.60;99.90;;;;;;8429329;28;19972;-77
2024/01/08 04:06:29;;;;;;;;;;;-1.60;99.90;;;;;;8442669;28;20002;-77
2024/01/08 04:10:31;;;;;;;;;;;-1.60;99.90;;;;;;8439561;28;19931;-77
2024/01/08 04:14:32;;;;;;;;;;;-1.50;99.90;;;;;;8443672;28;20268;-77
2024/01/08 04:18:37;;;;;;;;;;;-1.40;99.90;;;;;;8439257;28;19931;-77
2024/01/08 04:22:41;;;;;;;;;;;-1.40;99.90;;;;;;8415929;28;20379;-77
2024/01/08 04:26:43;;;;;;;;;;;-1.30;99.90;;;;;;8439622;28;19935;-78
2024/01/08 04:30:45;;;;;;;;;;;-1.30;99.90;;;;;;8440217;28;19931;-77
2024/01/08 04:34:46;;;;;;;;;;;-1.20;99.90;;;;;;8426203;28;19958;-77
2024/01/08 04:38:48;;;;;;;;;;;-1.10;99.90;;;;;;8433805;28;19924;-77
2024/01/08 04:42:50;;;;;;;;;;;-1.10;99.90;;;;;;8437869;28;20378;-78
2024/01/08 04:46:52;;;;;;;;;;;-1.00;99.90;;;;;;8438398;28;19928;-78
2024/01/08 04:50:53;;;;;;;;;;;-1.00;99.90;;;;;;8435658;28;19924;-78
2024/01/08 04:54:55;;;;;;;;;;;-1.00;99.90;;;;;;8435601;28;20291;-78
2024/01/08 04:58:57;;;;;;;;;;;-0.90;99.90;;;;;;8421988;28;19935;-77
2024/01/08 05:02:58;;;;;;;;;;;-0.90;99.90;;;;;;8440491;28;19924;-78
2024/01/08 05:07:00;;;;;;;;;;;-0.90;99.90;;;;;;8426727;28;19928;-78
2024/01/08 05:11:02;;;;;;;;;;;-0.90;99.90;;;;;;8446831;28;19928;-77
2024/01/08 05:15:04;;;;;;;;;;;-0.90;99.90;;;;;;8418249;28;19931;-78
2024/01/08 05:19:06;;;;;;;;;;;-0.90;99.90;;;;;;8441796;28;19924;-77
2024/01/08 05:23:08;;;;;;;;;;;-0.80;99.90;;;;;;8425884;28;19977;-78
2024/01/08 05:27:09;;;;;;;;;;;-0.80;99.90;;;;;;8420397;28;19924;-76
2024/01/08 05:31:11;;;;;;;;;;;-0.80;99.90;;;;;;8421247;28;20001;-77
2024/01/08 05:35:13;;;;;;;;;;;-0.80;99.90;;;;;;8408794;28;19947;-77
2024/01/08 05:39:16;;;;;;;;;;;-0.80;99.90;;;;;;8428735;28;20346;-77
2024/01/08 05:43:17;;;;;;;;;;;-0.70;99.90;;;;;;8410671;28;20383;-77
2024/01/08 05:47:19;;;;;;;;;;;-0.70;99.90;;;;;;8432927;28;19947;-77
2024/01/08 05:51:21;;;;;;;;;;;-0.70;99.90;;;;;;8422900;28;19927;-77
2024/01/08 05:55:23;;;;;;;;;;;-0.70;99.90;;;;;;8424066;28;20268;-77
2024/01/08 05:59:25;;;;;;;;;;;-0.70;99.90;;;;;;8426958;28;19923;-77
2024/01/08 06:03:27;;;;;;;;;;;-0.70;99.90;;;;;;8416787;28;19951;-77
2024/01/08 06:07:28;;;;;;;;;;;-0.70;99.90;;;;;;8419842;28;19924;-77
2024/01/08 06:11:30;;;;;;;;;;;-0.70;99.90;;;;;;8420571;28;19924;-77
2024/01/08 06:15:32;;;;;;;;;;;-0.70;99.90;;;;;;8436776;28;20185;-77
2024/01/08 06:19:34;;;;;;;;;;;-0.60;99.90;;;;;;8415280;28;20328;-77
2024/01/08 06:23:35;;;;;;;;;;;-0.60;99.90;;;;;;8412988;28;19928;-77
2024/01/08 06:27:37;;;;;;;;;;;-0.60;99.90;;;;;;8420275;28;20000;-77
2024/01/08 06:31:39;;;;;;;;;;;-0.60;99.90;;;;;;8442734;28;19932;-77
2024/01/08 06:35:41;;;;;;;;;;;-0.50;99.90;;;;;;8419277;28;20345;-77
2024/01/08 06:39:43;;;;;;;;;;;-0.50;99.90;;;;;;8444644;28;19934;-77
2024/01/08 06:43:45;;;;;;;;;;;-0.50;99.90;;;;;;8420390;28;20294;-77
2024/01/08 06:47:47;;;;;;;;;;;-0.50;99.90;;;;;;8422884;28;19924;-77
2024/01/08 06:51:49;;;;;;;;;;;-0.50;99.90;;;;;;8442801;28;19932;-77
2024/01/08 06:55:50;;;;;;;;;;;-0.50;99.90;;;;;;8440610;28;19931;-77
2024/01/08 06:59:52;;;;;;;;;;;-0.50;99.90;;;;;;8432224;28;19927;-77
2024/01/08 07:03:56;;;;;;;;;;;-0.50;99.90;;;;;;8442551;28;19924;-77
2024/01/08 07:07:59;;;;;;;;;;;-0.40;99.90;;;;;;8421039;28;19924;-77
2024/01/08 07:12:02;;;;;;;;;;;-0.50;99.90;;;;;;8437678;28;19935;-77
2024/01/08 07:16:04;;;;;;;;;;;-0.40;99.90;;;;;;8443975;28;19924;-77
2024/01/08 07:20:08;;;;;;;;;;;-0.40;99.90;;;;;;8413625;28;20411;-77
2024/01/08 07:24:10;;;;;;;;;;;-0.40;99.90;;;;;;8422674;28;19985;-77
2024/01/08 07:28:12;;;;;;;;;;;-0.40;99.90;;;;;;8416314;28;19931;-78
2024/01/08 07:32:14;;;;;;;;;;;-0.40;99.90;;;;;;8438274;28;20379;-78
2024/01/08 07:36:16;;;;;;;;;;;-0.40;99.90;;;;;;8435400;28;19931;-77
2024/01/08 07:40:17;;;;;;;;;;;-0.30;99.90;;;;;;8422778;28;19924;-77
2024/01/08 07:44:19;;;;;;;;;;;-0.30;99.90;;;;;;8413381;28;19932;-77
2024/01/08 07:48:24;;;;;;;;;;;-0.30;99.90;;;;;;8439196;28;19924;-78
2024/01/08 07:52:26;;;;;;;;;;;-0.30;99.90;;;;;;8418196;28;19924;-78
2024/01/08 07:56:36;;;;;;;;;;;-0.30;99.90;;;;;;8417603;28;19924;-77
2024/01/08 08:00:47;;;;;;;;;;;-0.30;99.90;;;;;;8436142;28;20409;-78
2024/01/08 08:04:49;;;;;;;;;;;-0.30;99.90;;;;;;8412245;28;19924;-78
2024/01/08 08:08:51;;;;;;;;;;;-0.30;99.90;;;;;;8422306;28;20256;-78
2024/01/08 08:12:53;;;;;;;;;;;-0.30;99.90;;;;;;8427369;28;20383;-77
2024/01/08 08:16:54;;;;;;;;;;;-0.20;99.90;;;;;;8432288;28;19924;-78
2024/01/08 08:20:57;;;;;;;;;;;-0.20;99.90;;;;;;8431783;28;19953;-78
2024/01/08 08:24:59;;;;;;;;;;;-0.30;99.90;;;;;;8418392;28;20051;-78
2024/01/08 08:29:01;;;;;;;;;;;-0.20;99.90;;;;;;8436872;28;19923;-78
2024/01/08 08:33:03;;;;;;;;;;;-0.20;99.90;;;;;;8441427;28;19928;-78
2024/01/08 08:37:05;;;;;;;;;;;-0.20;99.90;;;;;;8433546;28;20359;-78
2024/01/08 08:41:07;;;;;;;;;;;-0.20;99.90;;;;;;8436344;28;19930;-78
2024/01/08 08:45:09;;;;;;;;;;;-0.20;99.90;;;;;;8414905;28;19924;-78
2024/01/08 08:49:12;;;;;;;;;;;-0.20;99.90;;;;;;8417186;28;19998;-78
2024/01/08 08:53:13;;;;;;;;;;;-0.10;99.90;;;;;;8437563;28;19959;-78
2024/01/08 08:57:15;;;;;;;;;;;-0.10;99.90;;;;;;8418702;28;19924;-78
2024/01/08 09:01:17;;;;;;;;;;;-0.10;99.90;;;;;;8434969;28;19924;-78
2024/01/08 09:05:19;;;;;;;;;;;-0.10;99.90;;;;;;8427084;28;19928;-78
2024/01/08 09:09:29;;;;;;;;;;;-0.10;99.90;;;;;;8437699;28;19924;-78
2024/01/08 09:13:32;;;;;;;;;;;0.00;99.90;;;;;;8411161;28;20376;-77
2024/01/08 09:17:35;;;;;;;;;;;0.00;99.90;;;;;;8429364;28;19931;-78
2024/01/08 09:21:37;;;;;;;;;;;0.00;99.90;;;;;;8445998;28;19931;-78
2024/01/08 09:25:39;;;;;;;;;;;0.00;99.90;;;;;;8413646;28;19928;-78
2024/01/08 09:29:41;;;;;;;;;;;0.10;99.90;;;;;;8422278;28;20386;-78
2024/01/08 09:33:42;;;;;;;;;;;0.10;99.90;;;;;;8419016;28;19935;-78
2024/01/08 09:37:44;;;;;;;;;;;0.10;99.90;;;;;;8442192;28;20393;-78
2024/01/08 09:41:47;;;;;;;;;;;0.10;99.90;;;;;;8433987;28;19928;-77
2024/01/08 09:46:10;;;;;;;;;;;0.00;99.90;;;;;;8430658;28;19924;-78
2024/01/08 09:50:13;;;;;;;;;;;0.10;99.90;;;;;;8439667;28;19928;-78
2024/01/08 09:54:20;;;;;;;;;;;0.10;99.90;;;;;;8435239;28;20398;-78
2024/01/08 09:58:23;;;;;;;;;;;0.20;99.90;;;;;;8438776;28;19923;-78
2024/01/08 10:02:25;;;;;;;;;;;0.20;99.90;;;;;;8424999;28;19924;-78
2024/01/08 10:06:27;;;;;;;;;;;0.20;99.90;;;;;;8436081;28;19932;-79
2024/01/08 10:10:29;;;;;;;;;;;0.20;99.90;;;;;;8437600;28;19971;-78
2024/01/08 10:14:31;;;;;;;;;;;0.10;99.90;;;;;;8450675;28;20426;-78
2024/01/08 10:18:33;;;;;;;;;;;0.20;99.90;;;;;;8436025;28;19973;-78
2024/01/08 10:22:35;;;;;;;;;;;0.20;99.90;;;;;;8433956;28;19923;-78
2024/01/08 10:26:41;;;;;;;;;;;0.20;99.90;;;;;;8427973;28;20264;-78
2024/01/08 10:30:43;;;;;;;;;;;0.20;99.90;;;;;;8455136;28;19928;-78
2024/01/08 10:34:46;;;;;;;;;;;0.30;99.90;;;;;;8432118;28;19924;-78
2024/01/08 10:38:49;;;;;;;;;;;0.30;99.90;;;;;;8437149;28;19923;-78
2024/01/08 10:42:51;;;;;;;;;;;0.30;99.90;;;;;;8425478;28;19924;-78
2024/01/08 10:46:53;;;;;;;;;;;0.30;99.90;;;;;;8426312;28;19924;-78
2024/01/08 10:50:57;;;;;;;;;;;0.40;99.90;;;;;;8429562;28;19924;-78
2024/01/08 10:55:00;;;;;;;;;;;0.40;99.90;;;;;;8444378;28;19928;-78
2024/01/08 10:59:05;;;;;;;;;;;0.40;99.90;;;;;;8432636;28;19969;-78
2024/01/08 11:03:07;;;;;;;;;;;0.40;99.90;;;;;;8444993;28;19931;-78
2024/01/08 11:07:13;;;;;;;;;;;0.40;99.90;;;;;;8429601;28;19928;-78
2024/01/08 11:11:15;;;;;;;;;;;0.40;99.90;;;;;;8425636;28;20276;-78
2024/01/08 11:15:17;;;;;;;;;;;0.40;99.90;;;;;;8446103;28;20212;-78
2024/01/08 11:19:19;;;;;;;;;;;0.50;99.90;;;;;;8422369;28;19928;-80
2024/01/08 11:23:27;;;;;;;;;;;0.50;99.90;;;;;;8434077;28;20321;-78
2024/01/08 11:27:30;;;;;;;;;;;0.60;99.90;;;;;;8435465;28;20372;-78
2024/01/08 11:31:47;;;;;;;;;;;0.80;99.90;;;;;;8441166;28;19939;-78
2024/01/08 11:36:01;;;;;;;;;;;0.80;99.90;;;;;;8434074;28;19928;-78
2024/01/08 11:40:06;;;;;;;;;;;0.80;99.90;;;;;;8438772;28;19932;-78
2024/01/08 11:44:08;;;;;;;;;;;0.90;99.90;;;;;;8413502;28;20048;-78
2024/01/08 11:48:10;;;;;;;;;;;1.00;99.90;;;;;;8422573;28;19930;-78
2024/01/08 11:52:12;;;;;;;;;;;0.90;99.90;;;;;;8413681;28;19932;-78
2024/01/08 11:56:13;;;;;;;;;;;0.90;99.90;;;;;;8437139;28;19928;-78
2024/01/08 12:00:19;;;;;;;;;;;0.80;99.90;;;;;;8436686;28;19935;-78
2024/01/08 12:04:21;;;;;;;;;;;0.80;99.90;;;;;;8432301;28;20374;-79
2024/01/08 12:08:27;;;;;;;;;;;0.70;99.90;;;;;;8438189;28;19923;-78
2024/01/08 12:12:29;;;;;;;;;;;0.70;99.90;;;;;;8439570;28;20293;-78
2024/01/08 12:16:31;;;;;;;;;;;1.40;99.90;;;;;;8436623;28;19931;-78
2024/01/08 12:20:32;;;;;;;;;;;2.40;99.90;;;;;;8416440;28;19928;-78
2024/01/08 12:24:35;;;;;;;;;;;3.40;99.90;;;;;;8418884;28;20178;-78
2024/01/08 12:28:37;;;;;;;;;;;4.30;99.90;;;;;;8451967;28;19931;-77
2024/01/08 12:32:38;;;;;;;;;;;5.00;99.90;;;;;;8440747;28;19924;-77
2024/01/08 12:36:40;;;;;;;;;;;5.40;99.90;;;;;;8434628;28;20367;-77
2024/01/08 12:40:42;;;;;;;;;;;5.80;99.90;;;;;;8440304;28;19938;-77
2024/01/08 12:44:50;;;;;;;;;;;6.00;99.90;;;;;;8418879;28;19966;-77
2024/01/08 12:48:51;;;;;;;;;;;6.00;99.90;;;;;;8443222;28;19931;-77
2024/01/08 12:52:53;;;;;;;;;;;6.10;99.90;;;;;;8430247;28;20333;-77
2024/01/08 12:56:55;;;;;;;;;;;6.00;99.90;;;;;;8433682;28;20272;-77
2024/01/08 13:00:56;;;;;;;;;;;6.00;99.90;;;;;;8440726;28;19946;-77
2024/01/08 13:04:59;;;;;;;;;;;6.20;99.90;;;;;;8437904;28;20007;-77
2024/01/08 13:09:00;;;;;;;;;;;6.10;99.90;;;;;;8430823;28;20011;-77
2024/01/08 13:13:03;;;;;;;;;;;6.10;99.90;;;;;;8422010;28;19924;-77
2024/01/08 13:17:04;;;;;;;;;;;6.10;99.90;;;;;;8419293;28;19928;-76
2024/01/08 13:21:07;;;;;;;;;;;6.20;99.90;;;;;;8435318;28;20026;-76
2024/01/08 13:25:09;;;;;;;;;;;6.40;99.90;;;;;;8436508;28;20044;-76
2024/01/08 13:29:11;;;;;;;;;;;6.70;99.90;;;;;;8422711;28;19927;-76
2024/01/08 13:33:14;;;;;;;;;;;6.50;99.90;;;;;;8435132;28;20287;-75
2024/01/08 13:37:16;;;;;;;;;;;5.80;99.90;;;;;;8411358;28;19924;-76
2024/01/08 13:41:19;;;;;;;;;;;5.10;99.90;;;;;;8423984;28;20387;-76
2024/01/08 13:45:21;;;;;;;;;;;4.50;99.90;;;;;;8443603;28;19963;-76
2024/01/08 13:49:23;;;;;;;;;;;4.00;99.90;;;;;;8415802;28;19928;-76
2024/01/08 13:53:24;;;;;;;;;;;3.70;99.90;;;;;;8438232;28;19932;-76
2024/01/08 13:57:26;;;;;;;;;;;3.40;99.90;;;;;;8426426;28;19924;-76
2024/01/08 14:01:29;;;;;;;;;;;3.30;99.90;;;;;;8431910;28;19923;-76
2024/01/08 14:05:32;;;;;;;;;;;3.10;99.90;;;;;;8418005;28;19928;-76
2024/01/08 14:09:34;;;;;;;;;;;3.10;99.90;;;;;;8425189;28;19928;-76
2024/01/08 14:13:35;;;;;;;;;;;3.00;99.90;;;;;;8444806;28;20371;-75
2024/01/08 14:17:41;;;;;;;;;;;3.00;99.90;;;;;;8452068;28;20237;-76
2024/01/08 14:21:43;;;;;;;;;;;3.00;99.90;;;;;;8448828;28;19982;-76
2024/01/08 14:25:44;;;;;;;;;;;2.70;99.90;;;;;;8440755;28;19980;-76
2024/01/08 14:29:49;;;;;;;;;;;2.60;99.90;;;;;;8437685;28;19924;-76
2024/01/08 14:33:52;;;;;;;;;;;2.60;99.90;;;;;;8439224;28;19924;-76
2024/01/08 14:37:54;;;;;;;;;;;2.50;99.90;;;;;;8440774;28;20007;-75
2024/01/08 14:41:55;;;;;;;;;;;2.30;99.90;;;;;;8432490;28;19924;-76
2024/01/08 14:45:57;;;;;;;;;;;2.20;99.90;;;;;;8446059;28;19943;-76
2024/01/08 14:49:59;;;;;;;;;;;2.10;99.90;;;;;;8439138;28;20313;-77
2024/01/08 14:54:01;;;;;;;;;;;1.90;99.90;;;;;;8440578;28;20026;-76
2024/01/08 14:58:03;;;;;;;;;;;1.80;99.90;;;;;;8437157;28;19924;-76
2024/01/08 15:02:05;;;;;;;;;;;1.80;99.90;;;;;;8429420;28;19928;-76
2024/01/08 15:06:07;;;;;;;;;;;1.70;99.90;;;;;;8431482;28;20383;-76
2024/01/08 15:10:08;;;;;;;;;;;1.60;99.90;;;;;;8439794;28;19924;-76
2024/01/08 15:14:10;;;;;;;;;;;1.50;99.90;;;;;;8420091;28;19928;-76
2024/01/08 15:18:12;;;;;;;;;;;1.40;99.90;;;;;;8431202;28;20345;-76
2024/01/08 15:22:14;;;;;;;;;;;1.30;99.90;;;;;;8440589;28;19928;-76
2024/01/08 15:26:15;;;;;;;;;;;1.20;99.90;;;;;;8440317;28;19924;-76
2024/01/08 15:30:17;;;;;;;;;;;1.20;99.90;;;;;;8439169;28;19928;-76
2024/01/08 15:34:19;;;;;;;;;;;1.10;99.90;;;;;;8428577;28;20003;-76
2024/01/08 15:38:21;;;;;;;;;;;1.00;99.90;;;;;;8430609;28;19947;-76
2024/01/08 15:42:23;;;;;;;;;;;0.90;99.90;;;;;;8423135;28;19998;-76
2024/01/08 15:46:26;;;;;;;;;;;0.80;99.90;;;;;;8420356;28;19932;-76
2024/01/08 15:50:28;;;;;;;;;;;0.70;99.90;;;;;;8424109;28;20310;-76
2024/01/08 15:54:29;;;;;;;;;;;0.60;99.90;;;;;;8435072;28;20034;-77
2024/01/08 15:58:31;;;;;;;;;;;0.60;99.90;;;;;;8423091;28;20386;-76
2024/01/08 16:02:32;;;;;;;;;;;0.40;99.90;;;;;;8430721;28;19967;-77
2024/01/08 16:06:34;;;;;;;;;;;0.40;99.90;;;;;;8407785;28;19939;-76
2024/01/08 16:10:36;;;;;;;;;;;0.40;99.90;;;;;;8429263;28;19932;-77
2024/01/08 16:14:38;;;;;;;;;;;0.30;99.90;;;;;;8418162;28;19928;-78
2024/01/08 16:18:40;;;;;;;;;;;0.30;99.90;;;;;;8425034;28;20324;-76
2024/01/08 16:22:42;;;;;;;;;;;0.20;99.90;;;;;;8425388;28;19924;-76
2024/01/08 16:26:45;;;;;;;;;;;0.20;99.90;;;;;;8417541;28;19954;-76
2024/01/08 16:30:49;;;;;;;;;;;0.20;99.90;;;;;;8425449;28;19928;-76
2024/01/08 16:34:51;;;;;;;;;;;0.10;99.90;;;;;;8428732;28;19968;-76
2024/01/08 16:38:56;;;;;;;;;;;0.00;99.90;;;;;;8426691;28;20425;-77
2024/01/08 16:42:59;;;;;;;;;;;0.00;99.90;;;;;;8428193;28;20004;-76
2024/01/08 16:47:01;;;;;;;;;;;-0.10;99.90;;;;;;8425099;28;20209;-76
2024/01/08 16:51:04;;;;;;;;;;;-0.10;99.90;;;;;;8425178;28;19935;-77
2024/01/08 16:55:06;;;;;;;;;;;-0.10;99.90;;;;;;8412596;28;20221;-76
2024/01/08 16:59:07;;;;;;;;;;;-0.10;99.90;;;;;;8426302;28;20520;-76
2024/01/08 17:03:09;;;;;;;;;;;-0.20;99.90;;;;;;8411936;28;19974;-76
2024/01/08 17:07:11;;;;;;;;;;;-0.30;99.90;;;;;;8422509;28;20007;-77
2024/01/08 17:11:13;;;;;;;;;;;-0.30;99.90;;;;;;8424069;28;19928;-77
2024/01/08 17:15:15;;;;;;;;;;;-0.30;99.90;;;;;;8431344;28;19924;-76
2024/01/08 17:19:16;;;;;;;;;;;-0.30;99.90;;;;;;8426352;28;19924;-76
2024/01/08 17:23:19;;;;;;;;;;;-0.30;99.90;;;;;;8425773;28;19943;-76
2024/01/08 17:27:20;;;;;;;;;;;-0.40;99.90;;;;;;8407336;28;21040;-76
2024/01/08 17:31:22;;;;;;;;;;;-0.50;99.90;;;;;;8416311;28;19935;-76
2024/01/08 17:35:24;;;;;;;;;;;-0.40;99.90;;;;;;8420068;28;20048;-76
2024/01/08 17:39:26;;;;;;;;;;;-0.40;99.90;;;;;;8429817;28;19977;-76
2024/01/08 17:43:27;;;;;;;;;;;-0.50;99.90;;;;;;8432687;28;19928;-76
2024/01/08 17:47:30;;;;;;;;;;;-0.50;99.90;;;;;;8439363;28;19923;-76
2024/01/08 17:51:31;;;;;;;;;;;-0.60;99.90;;;;;;8437000;28;19924;-76
2024/01/08 17:55:33;;;;;;;;;;;-0.60;99.90;;;;;;8433895;28;19998;-76
2024/01/08 17:59:36;;;;;;;;;;;-0.60;99.90;;;;;;8440319;28;19924;-76
2024/01/08 18:03:38;;;;;;;;;;;-0.60;99.90;;;;;;8417774;28;20648;-76
2024/01/08 18:07:40;;;;;;;;;;;-0.60;99.90;;;;;;8443732;28;20387;-76
2024/01/08 18:11:43;;;;;;;;;;;-0.60;99.90;;;;;;8420642;28;21010;-77
2024/01/08 18:15:45;;;;;;;;;;;-0.70;99.90;;;;;;8437567;28;20332;-75
2024/01/08 18:19:47;;;;;;;;;;;-0.70;99.90;;;;;;8415332;28;19981;-76
2024/01/08 18:23:48;;;;;;;;;;;-0.70;99.90;;;;;;8425060;28;19924;-76
2024/01/08 18:27:50;;;;;;;;;;;-0.70;99.90;;;;;;8432215;28;19930;-76
2024/01/08 18:31:52;;;;;;;;;;;-0.70;99.90;;;;;;8436784;28;20244;-76
2024/01/08 18:35:54;;;;;;;;;;;-0.70;99.90;;;;;;8418967;28;19934;-76
2024/01/08 18:39:56;;;;;;;;;;;-0.70;99.90;;;;;;8418235;28;20836;-76
2024/01/08 18:43:59;;;;;;;;;;;-0.80;99.90;;;;;;8421846;28;19934;-75
2024/01/08 18:48:00;;;;;;;;;;;-0.80;99.90;;;;;;8434722;28;19928;-75
2024/01/08 18:52:03;;;;;;;;;;;-0.80;99.90;;;;;;8431248;28;19929;-76
2024/01/08 18:56:04;;;;;;;;;;;-0.80;99.90;;;;;;8416834;28;19928;-76
2024/01/08 19:00:06;;;;;;;;;;;-0.80;99.90;;;;;;8432780;28;19928;-76
2024/01/08 19:04:08;;;;;;;;;;;-0.80;99.90;;;;;;8428198;28;19950;-76
2024/01/08 19:08:10;;;;;;;;;;;-0.90;99.90;;;;;;8431289;28;20390;-76
2024/01/08 19:12:14;;;;;;;;;;;-0.90;99.90;;;;;;8415117;28;19928;-76
2024/01/08 19:16:19;;;;;;;;;;;-0.90;99.90;;;;;;8422135;28;20307;-75
2024/01/08 19:20:21;;;;;;;;;;;-0.90;99.90;;;;;;8437082;28;19975;-76
2024/01/08 19:24:26;;;;;;;;;;;-0.90;99.90;;;;;;8431998;28;19982;-75
2024/01/08 19:28:28;;;;;;;;;;;-1.00;99.90;;;;;;8424325;28;19970;-75
2024/01/08 19:32:29;;;;;;;;;;;-1.00;99.90;;;;;;8427433;28;20294;-75
2024/01/08 19:36:31;;;;;;;;;;;-1.00;99.90;;;;;;8435069;28;19978;-75
2024/01/08 19:40:33;;;;;;;;;;;-1.00;99.90;;;;;;8421739;28;19924;-76
2024/01/08 19:44:35;;;;;;;;;;;-1.00;99.90;;;;;;8421329;28;20387;-76
2024/01/08 19:48:36;;;;;;;;;;;-1.00;99.90;;;;;;8425907;28;20344;-76
2024/01/08 19:52:38;;;;;;;;;;;-1.10;99.90;;;;;;8410581;28;19939;-75
2024/01/08 19:56:41;;;;;;;;;;;-1.10;99.90;;;;;;8430608;28;19988;-75
2024/01/08 20:00:43;;;;;;;;;;;-1.10;99.90;;;;;;8433945;28;19935;-75
2024/01/08 20:04:45;;;;;;;;;;;-1.10;99.90;;;;;;8410556;28;19924;-75
2024/01/08 20:08:47;;;;;;;;;;;-1.10;99.90;;;;;;8413464;28;20383;-76
2024/01/08 20:12:49;;;;;;;;;;;-1.20;99.90;;;;;;8418009;28;19936;-75
2024/01/08 20:16:51;;;;;;;;;;;-1.20;99.90;;;;;;8425733;28;19924;-76
2024/01/08 20:20:52;;;;;;;;;;;-1.20;99.90;;;;;;8431615;28;19927;-75
2024/01/08 20:24:54;;;;;;;;;;;-1.20;99.90;;;;;;8428155;28;19931;-75
2024/01/08 20:28:56;;;;;;;;;;;-1.20;99.90;;;;;;8419303;28;20355;-76
2024/01/08 20:32:58;;;;;;;;;;;-1.30;99.90;;;;;;8413840;28;19932;-75
2024/01/08 20:37:31;;;;;;;;;;;-1.30;99.90;;;;;;8432315;28;19977;-75
2024/01/08 20:41:33;;;;;;;;;;;-1.30;99.90;;;;;;8426400;28;19924;-75
2024/01/08 20:45:35;;;;;;;;;;;-1.30;99.90;;;;;;8422509;28;19946;-76
2024/01/08 20:49:37;;;;;;;;;;;-1.30;99.90;;;;;;8426966;28;19939;-75
2024/01/08 20:53:39;;;;;;;;;;;-1.30;99.90;;;;;;8430364;28;20337;-76
2024/01/08 20:57:40;;;;;;;;;;;-1.40;99.90;;;;;;8422502;28;20641;-75
2024/01/08 21:01:42;;;;;;;;;;;-1.40;99.90;;;;;;8431683;28;19928;-76
2024/01/08 21:05:44;;;;;;;;;;;-1.40;99.90;;;;;;8407345;28;20013;-75
2024/01/08 21:09:46;;;;;;;;;;;-1.40;99.90;;;;;;8406976;28;19955;-76
2024/01/08 21:13:48;;;;;;;;;;;-1.40;99.90;;;;;;8427681;28;20350;-76
2024/01/08 21:17:49;;;;;;;;;;;-1.40;99.90;;;;;;8419275;28;19931;-76
2024/01/08 21:21:51;;;;;;;;;;;-1.50;99.90;;;;;;8416386;28;19924;-76
2024/01/08 21:25:55;;;;;;;;;;;-1.40;99.90;;;;;;8419789;28;20366;-76
2024/01/08 21:29:57;;;;;;;;;;;-1.40;99.90;;;;;;8426656;28;20004;-76
2024/01/08 21:33:59;;;;;;;;;;;-1.50;99.90;;;;;;8415817;28;19977;-76
2024/01/08 21:38:01;;;;;;;;;;;-1.50;99.90;;;;;;8416252;28;19936;-76
2024/01/08 21:42:03;;;;;;;;;;;-1.50;99.90;;;;;;8414609;28;20435;-76
2024/01/08 21:46:05;;;;;;;;;;;-1.50;99.90;;;;;;8419183;28;20372;-76
2024/01/08 21:50:07;;;;;;;;;;;-1.50;99.90;;;;;;8424209;28;20260;-76
2024/01/08 21:54:08;;;;;;;;;;;-1.50;99.90;;;;;;8421009;28;20294;-75
2024/01/08 21:58:10;;;;;;;;;;;-1.60;99.90;;;;;;8425589;28;19932;-76
2024/01/08 22:02:12;;;;;;;;;;;-1.60;99.90;;;;;;8419254;28;19931;-76
2024/01/08 22:06:15;;;;;;;;;;;-1.60;99.90;;;;;;8423918;28;19931;-75
2024/01/08 22:10:16;;;;;;;;;;;-1.60;99.90;;;;;;8438389;28;19924;-76
2024/01/08 22:14:24;;;;;;;;;;;-1.60;99.90;;;;;;8424958;28;19985;-76
2024/01/08 22:18:26;;;;;;;;;;;-1.70;99.90;;;;;;8438239;28;19932;-76
2024/01/08 22:22:28;;;;;;;;;;;-1.70;99.90;;;;;;8440906;28;19932;-76
2024/01/08 22:26:30;;;;;;;;;;;-1.70;99.90;;;;;;8412742;28;19923;-75
2024/01/08 22:30:31;;;;;;;;;;;-1.70;99.90;;;;;;8438835;28;19977;-75
2024/01/08 22:34:33;;;;;;;;;;;-1.70;99.90;;;;;;8443713;28;20632;-76
2024/01/08 22:38:35;;;;;;;;;;;-1.70;99.90;;;;;;8416654;28;19931;-76
2024/01/08 22:42:36;;;;;;;;;;;-1.70;99.90;;;;;;8422894;28;19936;-75
2024/01/08 22:46:39;;;;;;;;;;;-1.70;99.90;;;;;;8437985;28;20383;-75
2024/01/08 22:50:41;;;;;;;;;;;-1.70;99.90;;;;;;8419503;28;19925;-75
2024/01/08 22:54:42;;;;;;;;;;;-1.80;99.90;;;;;;8422244;28;19950;-75
2024/01/08 22:58:44;;;;;;;;;;;-1.80;99.90;;;;;;8420200;28;19928;-75
2024/01/08 23:02:46;;;;;;;;;;;-1.80;99.90;;;;;;8424522;28;20409;-76
2024/01/08 23:06:47;;;;;;;;;;;-1.80;99.90;;;;;;8439667;28;19924;-76
2024/01/08 23:10:49;;;;;;;;;;;-1.80;99.90;;;;;;8434825;28;20524;-75
2024/01/08 23:14:51;;;;;;;;;;;-1.80;99.90;;;;;;8444290;28;20317;-75
2024/01/08 23:18:53;;;;;;;;;;;-1.80;99.90;;;;;;8431314;28;20030;-75
2024/01/08 23:22:54;;;;;;;;;;;-1.80;99.90;;;;;;8409790;28;20311;-75
2024/01/08 23:27:00;;;;;;;;;;;-1.90;99.90;;;;;;8434836;28;19993;-75
2024/01/08 23:31:02;;;;;;;;;;;-1.90;99.90;;;;;;8429044;28;19973;-75
2024/01/08 23:35:04;;;;;;;;;;;-1.90;99.90;;;;;;8418967;28;19931;-75
2024/01/08 23:39:06;;;;;;;;;;;-1.90;99.90;;;;;;8417499;28;20006;-75
2024/01/08 23:43:09;;;;;;;;;;;-1.90;99.90;;;;;;8407223;28;20403;-75
2024/01/08 23:47:11;;;;;;;;;;;-1.90;99.90;;;;;;8443623;28;20345;-75
2024/01/08 23:51:12;;;;;;;;;;;-1.90;99.90;;;;;;8440818;28;19923;-75